Time;durP1;ratioP1;P1;durP2;ratioP2;P2;SDS_P1;SDS_P2;PMS_P1;PMS_P2;Temp;Humidity;BMP_temperature;BMP_pressure;BME280_temperature;BME280_humidity;BME280_pressure;Samples;Min_cycle;Max_cycle;Signal;HPM_P1;HPM_P2
2022/11/16 00:01:46;;;;;;;25.10;18.88;;;10.00;99.90;;;;;;5062270;28;20037;-50
2022/11/16 00:04:32;;;;;;;26.67;19.77;;;10.00;99.90;;;;;;5061645;28;20045;-51
2022/11/16 00:07:17;;;;;;;22.85;18.05;;;9.90;99.90;;;;;;5061961;28;20400;-52
2022/11/16 00:10:06;;;;;;;24.88;19.77;;;10.00;99.90;;;;;;5061572;28;20037;-51
2022/11/16 00:12:52;;;;;;;25.13;18.60;;;10.00;99.90;;;;;;5060887;28;20492;-56
2022/11/16 00:15:38;;;;;;;20.20;16.83;;;9.90;99.90;;;;;;5061491;28;20485;-55
2022/11/16 00:18:24;;;;;;;22.90;18.50;;;9.90;99.90;;;;;;5058075;28;20019;-52
2022/11/16 00:21:10;;;;;;;23.17;17.85;;;9.90;99.90;;;;;;5055442;28;20106;-52
2022/11/16 00:23:56;;;;;;;21.02;17.40;;;9.90;99.90;;;;;;5052576;28;20073;-53
2022/11/16 00:26:42;;;;;;;23.00;18.45;;;9.90;99.90;;;;;;5054444;28;20013;-52
2022/11/16 00:29:28;;;;;;;24.65;17.88;;;9.80;99.90;;;;;;5056252;28;20064;-51
2022/11/16 00:32:14;;;;;;;26.75;19.63;;;9.80;99.90;;;;;;5051668;28;20021;-50
2022/11/16 00:35:00;;;;;;;27.02;18.75;;;9.80;99.90;;;;;;5054746;28;20031;-51
2022/11/16 00:37:46;;;;;;;25.17;18.92;;;9.80;99.90;;;;;;5056189;28;20021;-50
2022/11/16 00:40:32;;;;;;;23.20;17.80;;;9.70;99.90;;;;;;5059008;28;20380;-49
2022/11/16 00:43:18;;;;;;;23.13;18.75;;;9.70;99.90;;;;;;5061362;28;20035;-51
2022/11/16 00:46:04;;;;;;;21.50;17.98;;;9.70;99.90;;;;;;5053967;28;20532;-50
2022/11/16 00:48:50;;;;;;;22.20;16.70;;;9.70;99.90;;;;;;5050623;28;20021;-49
2022/11/16 00:51:36;;;;;;;20.88;17.15;;;9.70;99.90;;;;;;5055780;28;20029;-49
2022/11/16 00:54:22;;;;;;;24.20;18.10;;;9.80;99.90;;;;;;5054945;28;20162;-51
2022/11/16 00:57:08;;;;;;;21.73;16.75;;;9.80;99.90;;;;;;5055531;28;20029;-52
2022/11/16 00:59:54;;;;;;;25.38;17.92;;;9.80;99.90;;;;;;5056451;28;20072;-52
2022/11/16 01:02:40;;;;;;;24.13;18.10;;;9.80;99.90;;;;;;5057176;28;20428;-52
2022/11/16 01:05:26;;;;;;;21.17;16.85;;;9.80;99.90;;;;;;5038935;28;20029;-56
2022/11/16 01:08:15;;;;;;;22.35;17.60;;;9.80;99.90;;;;;;5056814;28;20040;-50
2022/11/16 01:14:22;;;;;;;20.42;16.10;;;9.60;99.90;;;;;;5056343;28;20073;-51
2022/11/16 01:17:08;;;;;;;22.55;17.63;;;9.60;99.90;;;;;;5055291;28;20032;-55
2022/11/16 01:19:57;;;;;;;23.08;17.50;;;9.60;99.90;;;;;;5056239;28;20024;-49
2022/11/16 01:22:45;;;;;;;19.48;16.35;;;9.50;99.90;;;;;;5055348;28;20029;-52
2022/11/16 01:25:31;;;;;;;21.05;17.55;;;9.50;99.90;;;;;;5053389;28;20025;-53
2022/11/16 01:28:17;;;;;;;23.02;18.05;;;9.40;99.90;;;;;;5052298;28;20378;-53
2022/11/16 01:31:03;;;;;;;23.10;18.45;;;9.30;99.90;;;;;;5051687;28;20040;-55
2022/11/16 01:33:49;;;;;;;21.83;17.38;;;9.20;99.90;;;;;;5054782;28;20509;-50
2022/11/16 01:36:35;;;;;;;21.95;17.17;;;9.10;99.90;;;;;;5052435;28;20113;-52
2022/11/16 01:39:21;;;;;;;23.33;17.05;;;9.10;99.90;;;;;;5051992;28;20017;-53
2022/11/16 01:42:20;;;;;;;23.20;17.88;;;9.00;99.90;;;;;;5062204;28;20028;-51
2022/11/16 01:45:24;;;;;;;26.42;17.98;;;9.10;99.90;;;;;;5051195;28;20060;-53
2022/11/16 01:48:15;;;;;;;24.88;17.77;;;9.00;99.90;;;;;;5054452;28;20072;-56
2022/11/16 01:51:00;;;;;;;23.88;17.70;;;9.00;99.90;;;;;;5052385;28;20025;-54
2022/11/16 01:53:46;;;;;;;26.15;18.85;;;9.00;99.90;;;;;;5051546;28;20458;-56
2022/11/16 01:56:35;;;;;;;22.88;17.70;;;9.00;99.90;;;;;;5052051;28;20049;-54
2022/11/16 01:59:21;;;;;;;26.25;18.83;;;9.00;99.90;;;;;;5049747;28;20786;-53
2022/11/16 02:02:07;;;;;;;22.27;17.35;;;8.90;99.90;;;;;;5054125;28;20025;-51
2022/11/16 02:04:55;;;;;;;24.08;17.60;;;8.90;99.90;;;;;;5051185;28;20509;-53
2022/11/16 02:12:05;;;;;;;24.27;17.90;;;8.90;99.90;;;;;;5013738;28;20029;-52
2022/11/16 02:15:40;;;;;;;26.15;18.13;;;8.80;99.90;;;;;;5053966;28;20100;-52
2022/11/16 02:18:30;;;;;;;24.10;18.27;;;8.80;99.90;;;;;;5025276;28;20074;-52
2022/11/16 02:21:24;;;;;;;25.00;18.13;;;8.80;99.90;;;;;;5052199;28;20104;-56
2022/11/16 02:24:37;;;;;;;25.70;18.10;;;8.80;99.90;;;;;;5050340;28;20013;-49
2022/11/16 02:27:49;;;;;;;27.10;18.50;;;8.70;99.90;;;;;;5051159;28;20079;-54
2022/11/16 02:30:37;;;;;;;22.02;17.42;;;8.70;99.90;;;;;;5053643;28;20021;-52
2022/11/16 02:33:30;;;;;;;25.10;18.00;;;8.70;99.90;;;;;;5054388;28;20042;-50
2022/11/16 02:36:21;;;;;;;25.33;19.13;;;8.70;99.90;;;;;;5048892;28;20024;-52
2022/11/16 02:39:12;;;;;;;22.90;16.85;;;8.70;99.90;;;;;;5055474;28;20064;-52
2022/11/16 02:42:00;;;;;;;22.83;17.42;;;8.70;99.90;;;;;;5054474;28;20051;-51
2022/11/16 02:44:50;;;;;;;22.58;16.83;;;8.70;99.90;;;;;;5055869;28;20040;-50
2022/11/16 02:47:38;;;;;;;22.42;17.90;;;8.70;99.90;;;;;;5052685;28;20562;-54
2022/11/16 02:50:24;;;;;;;23.98;17.00;;;8.70;99.90;;;;;;5055707;28;20467;-54
2022/11/16 02:53:10;;;;;;;22.73;18.35;;;8.70;99.90;;;;;;5054092;28;20143;-53
2022/11/16 02:55:56;;;;;;;21.27;17.00;;;8.60;99.90;;;;;;5051252;28;20025;-53
2022/11/16 02:58:42;;;;;;;24.58;17.85;;;8.60;99.90;;;;;;5052490;28;20017;-53
2022/11/16 03:01:36;;;;;;;22.25;18.05;;;8.60;99.90;;;;;;5051161;28;20069;-51
2022/11/16 03:04:36;;;;;;;21.83;18.05;;;8.60;99.90;;;;;;5057287;28;20021;-53
2022/11/16 03:07:29;;;;;;;21.50;17.67;;;8.60;99.90;;;;;;5050271;28;20036;-56
2022/11/16 03:13:29;;;;;;;25.25;18.35;;;8.50;99.90;;;;;;5053032;28;20044;-50
2022/11/16 03:16:28;;;;;;;21.52;17.33;;;8.50;99.90;;;;;;5053706;28;20021;-55
2022/11/16 03:19:20;;;;;;;25.95;17.83;;;8.50;99.90;;;;;;5056105;28;20025;-53
2022/11/16 03:22:28;;;;;;;23.00;17.08;;;8.40;99.90;;;;;;5056974;28;20056;-56
2022/11/16 03:25:18;;;;;;;22.58;18.05;;;8.40;99.90;;;;;;5057785;28;20020;-51
2022/11/16 03:28:28;;;;;;;25.10;18.10;;;8.40;99.90;;;;;;5052945;28;20029;-52
2022/11/16 03:31:26;;;;;;;23.23;18.20;;;8.30;99.90;;;;;;5056091;28;20393;-54
2022/11/16 03:34:17;;;;;;;24.25;18.00;;;8.20;99.90;;;;;;5058149;28;20013;-53
2022/11/16 03:37:05;;;;;;;26.33;18.98;;;8.10;99.90;;;;;;5052278;28;20618;-54
2022/11/16 03:39:52;;;;;;;27.60;19.02;;;8.20;99.90;;;;;;5054942;28;20029;-51
2022/11/16 03:42:39;;;;;;;24.52;18.23;;;8.10;99.90;;;;;;5060056;28;20109;-54
2022/11/16 03:45:26;;;;;;;23.42;17.38;;;8.00;99.90;;;;;;5054304;28;20083;-54
2022/11/16 03:48:12;;;;;;;24.58;18.05;;;7.90;99.90;;;;;;5052907;28;20032;-53
2022/11/16 03:50:58;;;;;;;23.52;17.63;;;7.90;99.90;;;;;;5055257;28;20040;-54
2022/11/16 03:53:44;;;;;;;25.50;19.45;;;7.80;99.90;;;;;;5054723;28;20037;-55
2022/11/16 03:56:30;;;;;;;27.65;19.33;;;7.70;99.90;;;;;;5052993;28;20021;-51
2022/11/16 03:59:16;;;;;;;26.02;19.20;;;7.60;99.90;;;;;;5053964;28;20534;-51
2022/11/16 04:02:02;;;;;;;28.02;20.20;;;7.50;99.90;;;;;;5054990;28;20048;-55
2022/11/16 04:29:35;;;;;;;26.83;20.13;;;6.70;99.90;;;;;;5062692;28;20037;-52
2022/11/16 04:38:30;;;;;;;26.55;19.45;;;6.80;99.90;;;;;;5053288;28;20037;-53
2022/11/16 04:44:21;;;;;;;27.75;18.85;;;7.00;99.90;;;;;;5055168;28;20052;-52
2022/11/16 04:47:07;;;;;;;26.83;19.70;;;7.10;99.90;;;;;;5052262;28;20029;-54
2022/11/16 04:49:52;;;;;;;24.83;19.67;;;7.10;99.90;;;;;;5051701;28;20025;-55
2022/11/16 04:52:38;;;;;;;31.85;21.10;;;7.10;99.90;;;;;;5054786;28;20045;-53
2022/11/16 04:55:25;;;;;;;30.40;21.15;;;7.10;99.90;;;;;;5051230;28;20041;-50
2022/11/16 04:58:11;;;;;;;24.27;17.40;;;7.10;99.90;;;;;;5049899;28;20087;-49
2022/11/16 05:00:58;;;;;;;25.10;18.52;;;7.10;99.90;;;;;;5055338;28;20029;-53
2022/11/16 05:03:44;;;;;;;25.98;18.45;;;7.00;99.90;;;;;;5050416;28;20515;-50
2022/11/16 05:06:30;;;;;;;27.17;19.10;;;6.90;99.90;;;;;;5049300;28;20028;-54
2022/11/16 05:09:16;;;;;;;25.05;18.45;;;6.90;99.90;;;;;;5053346;28;20025;-55
2022/11/16 05:12:02;;;;;;;25.70;19.02;;;7.00;99.90;;;;;;5055181;28;20044;-51
2022/11/16 05:14:49;;;;;;;26.25;18.60;;;7.00;99.90;;;;;;5053267;28;20021;-55
2022/11/16 05:17:35;;;;;;;26.08;19.17;;;7.00;99.90;;;;;;5055631;28;20017;-50
2022/11/16 05:26:30;;;;;;;25.30;18.95;;;7.10;99.90;;;;;;5051823;28;20447;-55
2022/11/16 05:29:16;;;;;;;23.88;17.55;;;7.10;99.90;;;;;;5054071;28;20036;-53
2022/11/16 05:32:02;;;;;;;27.27;19.40;;;7.20;99.90;;;;;;5056138;28;20068;-51
2022/11/16 05:34:48;;;;;;;25.65;18.58;;;7.10;99.90;;;;;;5054653;28;20112;-55
2022/11/16 05:37:34;;;;;;;28.25;19.20;;;7.10;99.90;;;;;;5052038;28;20025;-50
2022/11/16 05:40:20;;;;;;;21.73;17.13;;;7.10;99.90;;;;;;5054019;28;20025;-54
2022/11/16 05:43:06;;;;;;;26.42;19.23;;;7.10;99.90;;;;;;5056185;28;20031;-54
2022/11/16 05:45:52;;;;;;;27.77;18.70;;;7.10;99.90;;;;;;5055336;28;20106;-52
2022/11/16 05:48:38;;;;;;;25.73;18.30;;;7.10;99.90;;;;;;5050686;28;20493;-50
2022/11/16 05:51:24;;;;;;;25.02;18.48;;;7.20;99.90;;;;;;5052865;28;20072;-51
2022/11/16 05:54:15;;;;;;;25.83;19.33;;;7.20;99.90;;;;;;5056044;28;20037;-53
2022/11/16 05:57:01;;;;;;;27.85;18.83;;;7.20;99.90;;;;;;5058118;28;20043;-53
2022/11/16 05:59:47;;;;;;;29.33;19.48;;;7.20;99.90;;;;;;5059960;28;20024;-55
2022/11/16 06:02:33;;;;;;;26.35;18.50;;;7.10;99.90;;;;;;5053500;28;20075;-54
2022/11/16 06:05:19;;;;;;;36.30;19.05;;;7.10;99.90;;;;;;5054166;28;20032;-53
2022/11/16 06:08:05;;;;;;;26.58;19.52;;;7.10;99.90;;;;;;5051620;28;20029;-53
2022/11/16 06:10:51;;;;;;;27.75;19.00;;;7.10;99.90;;;;;;5055043;28;20058;-54
2022/11/16 06:13:37;;;;;;;29.42;20.75;;;7.00;99.90;;;;;;5051340;28;20040;-52
2022/11/16 06:16:23;;;;;;;32.72;20.15;;;6.90;99.90;;;;;;5055009;28;20490;-51
2022/11/16 06:19:09;;;;;;;31.08;20.20;;;6.90;99.90;;;;;;5058272;28;20032;-52
2022/11/16 06:21:55;;;;;;;24.85;19.08;;;6.90;99.90;;;;;;5062151;28;20029;-53
2022/11/16 06:24:41;;;;;;;29.42;19.10;;;6.80;99.90;;;;;;5052425;28;20032;-54
2022/11/16 06:27:27;;;;;;;26.90;18.05;;;6.90;99.90;;;;;;5057572;28;20033;-53
2022/11/16 06:30:13;;;;;;;26.60;19.08;;;7.00;99.90;;;;;;5053699;28;20059;-50
2022/11/16 06:32:59;;;;;;;31.02;21.23;;;7.00;99.90;;;;;;5050569;28;20033;-50
2022/11/16 06:35:45;;;;;;;27.17;19.20;;;7.10;99.90;;;;;;5054256;28;20024;-55
2022/11/16 06:38:33;;;;;;;27.23;19.58;;;7.20;99.90;;;;;;5061872;28;20016;-54
2022/11/16 06:41:19;;;;;;;28.27;18.88;;;7.20;99.90;;;;;;5053664;28;20052;-51
2022/11/16 06:44:05;;;;;;;32.10;20.35;;;7.20;99.90;;;;;;5058851;28;20029;-51
2022/11/16 06:46:51;;;;;;;29.95;20.73;;;7.20;99.90;;;;;;5054666;28;20029;-53
2022/11/16 06:49:37;;;;;;;25.67;18.63;;;7.20;99.90;;;;;;5055497;28;20025;-51
2022/11/16 06:52:23;;;;;;;35.35;21.13;;;7.20;99.90;;;;;;5055497;28;20025;-51
2022/11/16 06:55:09;;;;;;;28.13;19.75;;;7.20;99.90;;;;;;5055039;28;20031;-52
2022/11/16 06:57:55;;;;;;;26.50;19.30;;;7.20;99.90;;;;;;5053887;28;20036;-57
2022/11/16 07:00:41;;;;;;;27.17;19.52;;;7.20;99.90;;;;;;5059573;28;20033;-50
2022/11/16 07:03:27;;;;;;;34.13;20.20;;;7.20;99.90;;;;;;5050162;28;20025;-48
2022/11/16 07:06:13;;;;;;;30.67;20.67;;;7.10;99.90;;;;;;5049963;28;20033;-52
2022/11/16 07:08:59;;;;;;;28.75;19.45;;;7.10;99.90;;;;;;5049061;28;20523;-52
2022/11/16 07:11:44;;;;;;;28.95;20.48;;;7.10;99.90;;;;;;5050741;28;20045;-53
2022/11/16 07:14:30;;;;;;;28.60;20.50;;;7.10;99.90;;;;;;5052974;28;20020;-50
2022/11/16 07:17:16;;;;;;;34.42;21.35;;;7.10;99.90;;;;;;5049805;28;20025;-51
2022/11/16 07:20:02;;;;;;;33.05;20.55;;;7.10;99.90;;;;;;5048202;28;20041;-53
2022/11/16 07:22:48;;;;;;;28.55;20.30;;;7.20;99.90;;;;;;5047929;28;20056;-51
2022/11/16 07:25:34;;;;;;;31.88;20.25;;;7.20;99.90;;;;;;5055518;28;20100;-51
2022/11/16 07:28:20;;;;;;;29.42;20.75;;;7.20;99.90;;;;;;5052096;28;20029;-53
2022/11/16 07:31:08;;;;;;;30.00;19.90;;;7.10;99.90;;;;;;5054485;28;20469;-53
2022/11/16 07:33:54;;;;;;;36.17;21.00;;;7.20;99.90;;;;;;5051635;28;20037;-51
2022/11/16 07:36:40;;;;;;;28.63;20.95;;;7.30;99.90;;;;;;5048541;28;20100;-55
2022/11/16 07:39:26;;;;;;;33.55;20.42;;;7.30;99.90;;;;;;5057031;28;20536;-53
2022/11/16 07:42:12;;;;;;;26.05;19.38;;;7.40;99.90;;;;;;5052373;28;20078;-55
2022/11/16 07:44:58;;;;;;;23.70;18.08;;;7.40;99.90;;;;;;5052454;28;20163;-53
2022/11/16 07:47:44;;;;;;;46.78;20.42;;;7.50;99.90;;;;;;5050767;28;20805;-54
2022/11/16 07:50:30;;;;;;;28.25;19.02;;;7.50;99.90;;;;;;5053484;28;20703;-51
2022/11/16 07:53:16;;;;;;;26.88;17.92;;;7.50;99.90;;;;;;5061760;28;20032;-53
2022/11/16 07:56:03;;;;;;;26.63;18.67;;;7.40;99.90;;;;;;5057009;28;20041;-52
2022/11/16 07:58:49;;;;;;;26.25;18.77;;;7.40;99.90;;;;;;5057617;28;20027;-54
2022/11/16 08:01:35;;;;;;;26.25;18.30;;;7.40;99.90;;;;;;5058815;28;20041;-51
2022/11/16 08:04:21;;;;;;;23.63;16.85;;;7.40;99.90;;;;;;5061948;28;20024;-52
2022/11/16 08:07:07;;;;;;;25.17;16.77;;;7.50;99.90;;;;;;5061752;28;20029;-56
2022/11/16 08:09:54;;;;;;;23.33;16.48;;;7.50;99.90;;;;;;5062044;28;20024;-56
2022/11/16 08:12:40;;;;;;;25.48;17.27;;;7.50;99.90;;;;;;5064264;28;20500;-52
2022/11/16 08:15:26;;;;;;;27.98;17.42;;;7.50;99.90;;;;;;5059079;28;20060;-52
2022/11/16 08:18:12;;;;;;;29.08;17.90;;;7.60;99.90;;;;;;5064330;28;20078;-58
2022/11/16 08:20:58;;;;;;;24.90;16.73;;;7.60;99.90;;;;;;5060747;28;20024;-53
2022/11/16 08:23:48;;;;;;;21.17;15.00;;;7.60;99.90;;;;;;5063381;28;20490;-53
2022/11/16 08:26:34;;;;;;;23.42;16.58;;;7.70;99.90;;;;;;5058948;28;20060;-56
2022/11/16 08:29:19;;;;;;;30.75;17.45;;;7.60;99.90;;;;;;5060815;28;20044;-54
2022/11/16 08:32:06;;;;;;;23.40;15.75;;;7.60;99.90;;;;;;5058311;28;20045;-53
2022/11/16 08:34:52;;;;;;;23.20;15.40;;;7.70;99.90;;;;;;5062904;28;20484;-52
2022/11/16 08:37:37;;;;;;;19.77;14.93;;;7.70;99.90;;;;;;5066063;28;20036;-52
2022/11/16 08:40:24;;;;;;;23.58;15.32;;;7.70;99.90;;;;;;5063932;28;20020;-48
2022/11/16 08:43:10;;;;;;;24.25;15.73;;;7.80;99.90;;;;;;5069316;28;20104;-51
2022/11/16 08:45:56;;;;;;;24.50;15.82;;;7.80;99.90;;;;;;5059009;28;20075;-52
2022/11/16 08:48:43;;;;;;;23.02;15.90;;;7.80;99.90;;;;;;5055380;28;20086;-56
2022/11/16 08:51:29;;;;;;;22.35;14.65;;;7.80;99.90;;;;;;5061373;28;20107;-48
2022/11/16 08:54:15;;;;;;;18.98;14.45;;;7.80;99.90;;;;;;5062539;28;20039;-48
2022/11/16 08:57:01;;;;;;;18.15;14.30;;;7.90;99.90;;;;;;5054155;28;20029;-51
2022/11/16 08:59:47;;;;;;;25.27;14.60;;;8.00;99.90;;;;;;5058021;28;20051;-53
2022/11/16 09:02:32;;;;;;;23.90;16.63;;;8.00;99.90;;;;;;5059289;28;20060;-53
2022/11/16 09:05:18;;;;;;;22.40;14.52;;;8.00;99.90;;;;;;5055294;28;20107;-55
2022/11/16 09:08:04;;;;;;;18.55;13.65;;;8.00;99.90;;;;;;5061939;28;20053;-53
2022/11/16 09:10:50;;;;;;;24.27;16.48;;;8.00;99.90;;;;;;5055209;28;20612;-51
2022/11/16 09:13:36;;;;;;;21.08;15.30;;;8.10;99.90;;;;;;5059300;28;20036;-53
2022/11/16 09:16:22;;;;;;;18.88;13.90;;;8.00;99.90;;;;;;5062179;28;20070;-54
2022/11/16 09:19:11;;;;;;;19.42;14.32;;;8.10;99.90;;;;;;5053046;28;20029;-52
2022/11/16 09:21:57;;;;;;;25.58;16.90;;;8.00;99.90;;;;;;5061536;28;20501;-53
2022/11/16 09:24:43;;;;;;;27.13;17.50;;;8.00;99.90;;;;;;5050109;28;20431;-49
2022/11/16 09:27:29;;;;;;;21.85;15.57;;;8.00;99.90;;;;;;5053857;28;20036;-51
2022/11/16 09:30:17;;;;;;;23.95;15.07;;;8.00;99.90;;;;;;5057679;28;20025;-52
2022/11/16 09:33:03;;;;;;;24.17;16.30;;;8.00;99.90;;;;;;5048326;28;20036;-53
2022/11/16 09:35:49;;;;;;;26.00;16.52;;;8.10;99.90;;;;;;5065857;28;20027;-52
2022/11/16 09:38:39;;;;;;;24.35;16.83;;;8.10;99.90;;;;;;5055440;28;20032;-47
2022/11/16 09:41:44;;;;;;;28.85;17.00;;;8.10;99.90;;;;;;5055893;28;20013;-53
2022/11/16 09:44:54;;;;;;;18.10;12.20;;;8.10;99.90;;;;;;5056608;28;20484;-56
2022/11/16 09:47:53;;;;;;;16.30;12.70;;;8.10;99.90;;;;;;5059000;28;20034;-53
2022/11/16 09:50:45;;;;;;;19.40;13.20;;;8.10;99.90;;;;;;5055927;28;20014;-52
2022/11/16 09:53:31;;;;;;;32.45;19.80;;;8.10;99.90;;;;;;5058989;28;20025;-55
2022/11/16 09:56:30;;;;;;;23.40;17.52;;;8.10;99.90;;;;;;5060191;28;20032;-54
2022/11/16 09:59:24;;;;;;;21.17;14.38;;;8.20;99.90;;;;;;5051027;28;20019;-52
2022/11/16 10:02:29;;;;;;;21.05;13.85;;;8.20;99.90;;;;;;5049683;28;20021;-54
2022/11/16 10:05:44;;;;;;;19.50;14.18;;;8.30;99.90;;;;;;5058812;28;20035;-48
2022/11/16 10:08:45;;;;;;;20.83;13.57;;;8.30;99.90;;;;;;5050354;28;20025;-51
2022/11/16 10:11:53;;;;;;;18.88;13.73;;;8.40;99.90;;;;;;5063920;28;20028;-53
2022/11/16 10:15:17;;;;;;;17.35;12.85;;;8.40;99.90;;;;;;5055935;28;20013;-52
2022/11/16 10:18:15;;;;;;;19.73;13.63;;;8.50;99.90;;;;;;5054143;28;20021;-52
2022/11/16 10:21:04;;;;;;;19.88;13.70;;;8.50;99.90;;;;;;5053898;28;20032;-57
2022/11/16 10:24:28;;;;;;;20.55;13.32;;;8.60;99.90;;;;;;5059784;28;20400;-52
2022/11/16 10:27:43;;;;;;;22.25;14.38;;;8.60;99.90;;;;;;5055868;28;20441;-49
2022/11/16 10:30:38;;;;;;;19.05;14.27;;;8.60;99.90;;;;;;5059476;28;20023;-55
2022/11/16 10:33:26;;;;;;;17.60;13.95;;;8.60;99.90;;;;;;5056654;28;20032;-50
2022/11/16 10:36:14;;;;;;;20.30;15.38;;;8.60;99.90;;;;;;5056359;28;20028;-52
2022/11/16 10:39:01;;;;;;;19.40;15.13;;;8.50;99.90;;;;;;5056535;28;20048;-52
2022/11/16 10:41:50;;;;;;;20.63;15.43;;;8.60;99.90;;;;;;5060326;28;20024;-56
2022/11/16 10:44:58;;;;;;;20.08;15.35;;;8.60;99.90;;;;;;5057405;28;20107;-55
2022/11/16 10:48:00;;;;;;;21.08;15.55;;;8.70;99.90;;;;;;5050636;28;20025;-51
2022/11/16 10:50:49;;;;;;;18.95;14.00;;;8.80;99.90;;;;;;5053066;28;20021;-55
2022/11/16 10:53:37;;;;;;;18.25;14.07;;;8.90;99.90;;;;;;5055218;28;20055;-53
2022/11/16 10:56:36;;;;;;;18.02;13.93;;;9.00;99.90;;;;;;5057950;28;20400;-51
2022/11/16 10:59:39;;;;;;;17.92;14.60;;;9.00;99.90;;;;;;5056488;28;20017;-51
2022/11/16 11:02:33;;;;;;;19.73;15.18;;;9.00;99.90;;;;;;5056239;28;20064;-55
2022/11/16 11:05:20;;;;;;;18.15;14.30;;;9.00;99.90;;;;;;5054819;28;20488;-55
2022/11/16 11:08:10;;;;;;;18.10;14.30;;;9.10;99.90;;;;;;5058460;28;20406;-53
2022/11/16 11:14:12;;;;;;;35.25;21.65;;;9.10;99.90;;;;;;5064635;28;20496;-56
2022/11/16 11:17:11;;;;;;;32.47;21.20;;;9.10;99.90;;;;;;5068304;28;20044;-56
2022/11/16 11:20:19;;;;;;;29.83;19.35;;;9.10;99.90;;;;;;5069884;28;20036;-58
2022/11/16 11:23:14;;;;;;;29.40;18.65;;;9.10;99.90;;;;;;5069872;28;20425;-58
2022/11/16 11:26:01;;;;;;;24.55;17.92;;;9.10;99.90;;;;;;5069610;28;20085;-52
2022/11/16 11:28:49;;;;;;;24.17;17.48;;;9.10;99.90;;;;;;5069213;28;20043;-51
2022/11/16 11:31:41;;;;;;;25.77;17.60;;;9.20;99.90;;;;;;5069696;28;20548;-54
2022/11/16 11:34:31;;;;;;;19.92;14.40;;;9.20;99.90;;;;;;5068832;28;20400;-52
2022/11/16 11:37:40;;;;;;;21.40;14.98;;;9.20;99.90;;;;;;5072008;28;20040;-52
2022/11/16 11:40:28;;;;;;;20.50;16.25;;;9.20;99.90;;;;;;5059379;28;20112;-54
2022/11/16 11:43:22;;;;;;;20.55;15.95;;;9.10;99.90;;;;;;5073510;28;20396;-54
2022/11/16 11:46:18;;;;;;;20.45;15.02;;;9.10;99.90;;;;;;5073845;28;20032;-51
2022/11/16 11:49:22;;;;;;;20.17;15.27;;;9.10;99.90;;;;;;5072646;28;20112;-48
2022/11/16 11:52:35;;;;;;;19.15;14.20;;;8.90;99.90;;;;;;5072724;28;20593;-55
2022/11/16 11:55:21;;;;;;;22.77;16.00;;;8.90;99.90;;;;;;5072482;28;20450;-50
2022/11/16 11:58:15;;;;;;;24.77;17.45;;;8.90;99.90;;;;;;5071774;28;20017;-49
2022/11/16 12:01:35;;;;;;;25.90;17.38;;;8.90;99.90;;;;;;5073263;28;20103;-51
2022/11/16 12:04:46;;;;;;;21.10;16.30;;;9.00;99.90;;;;;;5072911;28;20024;-49
2022/11/16 12:07:56;;;;;;;24.48;16.40;;;8.90;99.90;;;;;;5072165;28;20024;-52
2022/11/16 12:11:06;;;;;;;21.58;16.35;;;8.90;99.90;;;;;;5071786;28;20513;-52
2022/11/16 12:14:09;;;;;;;28.77;16.92;;;8.90;99.90;;;;;;5072294;28;20029;-48
2022/11/16 12:17:14;;;;;;;28.70;21.10;;;8.90;99.90;;;;;;5073112;28;20456;-56
2022/11/16 12:20:37;;;;;;;29.55;20.92;;;8.90;99.90;;;;;;5070620;28;20024;-52
2022/11/16 12:23:57;;;;;;;28.23;19.83;;;8.90;99.90;;;;;;5057278;28;20036;-58
2022/11/16 12:27:01;;;;;;;24.98;16.92;;;9.00;99.90;;;;;;5052975;28;20017;-50
2022/11/16 12:30:06;;;;;;;24.75;17.88;;;9.00;99.90;;;;;;5051978;28;20067;-51
2022/11/16 12:33:29;;;;;;;22.60;15.98;;;9.00;99.90;;;;;;5055771;28;20017;-52
2022/11/16 12:36:23;;;;;;;25.90;17.85;;;9.00;99.90;;;;;;5054145;28;20060;-53
2022/11/16 12:39:41;;;;;;;24.93;17.97;;;9.00;99.90;;;;;;5056448;28;20017;-53
2022/11/16 12:42:44;;;;;;;23.02;16.83;;;9.00;99.90;;;;;;5058782;28;20263;-52
2022/11/16 12:46:11;;;;;;;22.00;16.40;;;8.90;99.90;;;;;;5063202;28;20024;-53
2022/11/16 12:49:17;;;;;;;22.30;16.17;;;8.90;99.90;;;;;;5023191;28;20082;-50
2022/11/16 12:52:06;;;;;;;24.42;17.58;;;8.90;99.90;;;;;;5052059;28;20397;-56
2022/11/16 12:54:57;;;;;;;23.98;18.27;;;8.80;99.90;;;;;;5051231;28;20025;-54
2022/11/16 12:58:08;;;;;;;26.73;18.48;;;8.80;99.90;;;;;;5051207;28;20024;-56
2022/11/16 13:01:21;;;;;;;24.45;17.58;;;8.80;99.90;;;;;;5053075;28;20021;-54
2022/11/16 13:04:17;;;;;;;27.00;18.63;;;8.90;99.90;;;;;;5051127;28;20130;-51
2022/11/16 13:07:15;;;;;;;28.73;20.10;;;8.90;99.90;;;;;;5051982;28;20024;-53
2022/11/16 13:10:29;;;;;;;28.98;21.08;;;8.90;99.90;;;;;;5051860;28;20021;-55
2022/11/16 13:13:24;;;;;;;31.25;22.88;;;8.90;99.90;;;;;;5050955;28;20116;-54
2022/11/16 13:16:14;;;;;;;;;;;8.80;99.90;;;;;;5050491;28;20063;-57
2022/11/16 13:19:04;;;;;;;33.50;24.13;;;8.70;99.90;;;;;;5052064;28;19948;-56
2022/11/16 13:22:09;;;;;;;50.28;36.03;;;8.60;99.90;;;;;;5050401;28;20029;-56
2022/11/16 13:25:29;;;;;;;36.97;27.73;;;8.60;99.90;;;;;;5052354;28;20025;-54
2022/11/16 13:28:25;;;;;;;49.63;31.92;;;8.50;99.90;;;;;;5052689;28;20031;-53
2022/11/16 13:31:18;;;;;;;36.15;26.88;;;8.50;99.90;;;;;;5051114;28;20033;-53
2022/11/16 13:34:11;;;;;;;37.50;27.02;;;8.50;99.90;;;;;;5051041;28;20033;-51
2022/11/16 13:36:57;;;;;;;38.90;27.10;;;8.50;99.90;;;;;;5049803;28;20115;-51
2022/11/16 13:39:49;;;;;;;41.10;27.48;;;8.50;99.90;;;;;;5049224;28;20033;-49
2022/11/16 13:42:57;;;;;;;39.17;27.25;;;8.50;99.90;;;;;;5050160;28;20017;-50
2022/11/16 13:45:54;;;;;;;37.72;28.38;;;8.50;99.90;;;;;;5049492;28;20036;-57
2022/11/16 13:48:44;;;;;;;39.40;27.80;;;8.50;99.90;;;;;;5049306;28;20025;-49
2022/11/16 13:51:30;;;;;;;39.95;29.23;;;8.60;99.90;;;;;;5049356;28;20418;-54
2022/11/16 13:54:30;;;;;;;39.92;28.75;;;8.50;99.90;;;;;;5051153;28;20041;-58
2022/11/16 13:57:19;;;;;;;39.83;28.42;;;8.50;99.90;;;;;;5050024;28;20099;-54
2022/11/16 14:00:10;;;;;;;42.20;30.52;;;8.50;99.90;;;;;;5050010;28;20044;-56
2022/11/16 14:03:14;;;;;;;42.25;30.15;;;8.50;99.90;;;;;;5052099;28;20041;-54
2022/11/16 14:06:01;;;;;;;44.20;31.20;;;8.50;99.90;;;;;;5049874;28;20067;-53
2022/11/16 14:08:51;;;;;;;47.67;31.70;;;8.50;99.90;;;;;;5049151;28;20033;-52
2022/11/16 14:11:38;;;;;;;47.58;32.80;;;8.60;99.90;;;;;;5051538;28;20029;-55
2022/11/16 14:15:02;;;;;;;45.97;31.55;;;8.50;99.90;;;;;;5050446;28;20029;-52
2022/11/16 14:18:08;;;;;;;47.83;32.22;;;8.50;99.90;;;;;;5051509;28;20021;-54
2022/11/16 14:20:57;;;;;;;49.38;33.78;;;8.50;99.90;;;;;;5049420;28;20106;-55
2022/11/16 14:23:54;;;;;;;48.88;33.88;;;8.50;99.90;;;;;;5049238;28;20022;-51
2022/11/16 14:27:03;;;;;;;48.28;32.70;;;8.50;99.90;;;;;;5049376;28;20078;-58
2022/11/16 14:30:08;;;;;;;52.20;34.72;;;8.50;99.90;;;;;;5036142;28;20496;-53
2022/11/16 14:32:56;;;;;;;47.97;33.80;;;8.40;99.90;;;;;;5049793;28;20037;-57
2022/11/16 14:35:42;;;;;;;53.97;36.53;;;8.40;99.90;;;;;;5051142;28;20091;-60
2022/11/16 14:38:42;;;;;;;55.85;34.85;;;8.50;99.90;;;;;;5048054;28;20084;-61
2022/11/16 14:41:28;;;;;;;53.75;35.75;;;8.50;99.90;;;;;;5049641;28;20025;-60
2022/11/16 14:44:20;;;;;;;54.25;35.78;;;8.50;99.90;;;;;;5049259;28;20104;-60
2022/11/16 14:47:23;;;;;;;53.63;36.28;;;8.40;99.90;;;;;;5049626;28;20537;-60
2022/11/16 14:50:21;;;;;;;53.97;36.25;;;8.40;99.90;;;;;;5050235;28;20021;-59
2022/11/16 14:53:11;;;;;;;58.50;37.50;;;8.40;99.90;;;;;;5047769;28;20083;-58
2022/11/16 14:56:12;;;;;;;58.50;38.60;;;8.30;99.90;;;;;;5048885;28;20048;-62
2022/11/16 14:59:00;;;;;;;61.50;38.30;;;8.20;99.90;;;;;;5048260;28;20559;-57
2022/11/16 15:01:46;;;;;;;57.00;37.38;;;8.20;99.90;;;;;;5048382;28;20021;-58
2022/11/16 15:04:32;;;;;;;53.58;35.90;;;8.20;99.90;;;;;;5048664;28;20052;-58
2022/11/16 15:07:22;;;;;;;57.00;36.75;;;8.20;99.90;;;;;;5048221;28;20558;-58
2022/11/16 15:10:14;;;;;;;58.35;37.03;;;8.20;99.90;;;;;;5054559;28;20489;-59
2022/11/16 15:13:00;;;;;;;59.78;36.45;;;8.30;99.90;;;;;;5053918;28;20111;-60
2022/11/16 15:15:49;;;;;;;58.88;37.03;;;8.30;99.90;;;;;;5053218;28;20036;-58
2022/11/16 15:18:35;;;;;;;61.38;36.72;;;8.30;99.90;;;;;;5053654;28;20026;-57
2022/11/16 15:21:22;;;;;;;56.00;35.40;;;8.30;99.90;;;;;;5052250;28;20123;-58
2022/11/16 15:24:08;;;;;;;58.55;36.22;;;8.30;99.90;;;;;;5054990;28;20145;-57
2022/11/16 15:27:17;;;;;;;54.88;34.08;;;8.30;99.90;;;;;;5054607;28;20037;-55
2022/11/16 15:30:35;;;;;;;54.60;34.55;;;8.20;99.90;;;;;;5056091;28;20028;-59
2022/11/16 15:33:31;;;;;;;58.13;35.20;;;8.20;99.90;;;;;;5054092;28;20063;-59
2022/11/16 15:36:30;;;;;;;53.08;33.88;;;8.20;99.90;;;;;;5054116;28;20489;-60
2022/11/16 15:39:19;;;;;;;51.45;33.78;;;8.20;99.90;;;;;;5053229;28;20079;-61